createdAt,value
2023-03-20T00:02:21.098Z,4.25
2023-03-20T00:04:49.209Z,3.38
2023-03-20T00:07:17.157Z,8.63
2023-03-20T00:09:45.122Z,3.40
2023-03-20T00:12:15.769Z,2.15
2023-03-20T00:14:43.832Z,1.90
2023-03-20T00:17:12.726Z,3.97
2023-03-20T00:19:41.974Z,7.15
2023-03-20T00:22:15.567Z,4.47
2023-03-20T00:24:43.707Z,13.52
2023-03-20T00:27:14.666Z,2.42
2023-03-20T00:29:42.888Z,3.85
2023-03-20T00:32:13.910Z,4.85
2023-03-20T00:34:43.548Z,8.32
2023-03-20T00:37:12.636Z,3.60
2023-03-20T00:39:40.695Z,4.88
2023-03-20T00:42:19.211Z,5.85
2023-03-20T00:44:52.289Z,3.47
2023-03-20T00:47:22.557Z,3.20
2023-03-20T00:49:54.521Z,3.67
2023-03-20T00:52:23.626Z,3.10
2023-03-20T00:54:52.773Z,4.68
2023-03-20T00:57:28.137Z,2.85
2023-03-20T00:59:59.755Z,3.42
2023-03-20T01:02:29.558Z,3.55
2023-03-20T01:04:59.212Z,5.25
2023-03-20T01:07:27.621Z,2.63
2023-03-20T01:09:56.400Z,4.95
2023-03-20T01:12:24.909Z,6.20
2023-03-20T01:14:55.756Z,5.10
2023-03-20T01:17:25.622Z,5.07
2023-03-20T01:19:54.116Z,4.20
2023-03-20T01:22:26.079Z,3.67
2023-03-20T01:25:01.209Z,11.60
2023-03-20T01:27:37.274Z,4.30
2023-03-20T01:30:07.947Z,3.80
2023-03-20T01:32:37.209Z,6.35
2023-03-20T01:35:05.803Z,3.05
2023-03-20T01:37:35.417Z,5.30
2023-03-20T01:40:09.990Z,5.50
2023-03-20T01:42:38.171Z,6.13
2023-03-20T01:45:16.882Z,3.75
2023-03-20T01:47:45.657Z,4.25
2023-03-20T01:50:28.187Z,4.10
2023-03-20T01:53:11.589Z,3.83
2023-03-20T01:55:46.928Z,3.25
2023-03-20T01:58:23.824Z,3.92
2023-03-20T02:00:52.052Z,7.97
2023-03-20T02:03:22.415Z,2.90
2023-03-20T02:06:17.864Z,5.88
2023-03-20T02:09:06.234Z,4.68
2023-03-20T02:11:42.695Z,7.15
2023-03-20T02:14:11.506Z,3.25
2023-03-20T02:16:54.948Z,3.17
2023-03-20T02:19:33.912Z,3.63
2023-03-20T02:22:26.262Z,4.45
2023-03-20T02:25:36.909Z,2.95
2023-03-20T02:28:42.813Z,3.95
2023-03-20T02:31:37.314Z,4.88
2023-03-20T02:34:38.565Z,8.40
2023-03-20T02:37:48.824Z,4.88
2023-03-20T02:40:28.398Z,3.30
2023-03-20T02:43:03.807Z,4.25
2023-03-20T02:45:40.272Z,4.22
2023-03-20T02:48:23.194Z,3.58
2023-03-20T02:50:57.171Z,5.55
2023-03-20T02:53:37.035Z,4.93
2023-03-20T02:56:13.278Z,5.50
2023-03-20T02:58:50.554Z,5.10
2023-03-20T03:01:22.119Z,5.50
2023-03-20T03:03:55.689Z,4.10
2023-03-20T03:06:30.008Z,6.07
2023-03-20T03:09:03.898Z,4.95
2023-03-20T03:11:35.215Z,4.07
2023-03-20T03:14:05.189Z,3.70
2023-03-20T03:16:36.833Z,4.38
2023-03-20T03:19:09.196Z,3.63
2023-03-20T03:21:39.767Z,3.47
2023-03-20T03:24:39.205Z,2.63
2023-03-20T03:27:17.404Z,4.82
2023-03-20T03:29:51.096Z,3.05
2023-03-20T03:32:30.648Z,3.75
2023-03-20T03:34:59.333Z,3.70
2023-03-20T03:37:41.777Z,8.07
2023-03-20T03:40:19.545Z,4.38
2023-03-20T03:42:54.767Z,2.95
2023-03-20T03:45:30.432Z,5.50
2023-03-20T03:48:03.486Z,5.85
2023-03-20T03:50:37.084Z,3.65
2023-03-20T03:53:14.889Z,3.75
2023-03-20T03:55:53.448Z,3.75
2023-03-20T03:58:25.625Z,6.32
2023-03-20T04:00:56.879Z,5.50
2023-03-20T04:03:30.212Z,3.85
2023-03-20T04:05:59.889Z,3.15
2023-03-20T04:08:28.443Z,4.65
2023-03-20T04:10:57.938Z,3.03
2023-03-20T04:13:25.986Z,3.53
2023-03-20T04:15:53.973Z,6.82
2023-03-20T04:18:22.017Z,5.60
2023-03-20T04:20:51.703Z,4.13
2023-03-20T04:23:19.597Z,5.22
2023-03-20T04:25:48.612Z,4.60
2023-03-20T04:28:19.425Z,4.82
2023-03-20T04:31:08.262Z,3.80
2023-03-20T04:33:50.477Z,5.97
2023-03-20T04:36:36.748Z,5.50
2023-03-20T04:39:06.992Z,3.70
2023-03-20T04:41:35.323Z,4.20
2023-03-20T04:44:05.693Z,4.28
2023-03-20T04:46:35.827Z,3.15
2023-03-20T04:49:08.249Z,10.07
2023-03-20T04:51:36.190Z,4.95
2023-03-20T04:54:05.242Z,4.30
2023-03-20T04:56:33.269Z,12.27
2023-03-20T04:59:20.409Z,5.53
2023-03-20T05:01:48.502Z,4.93
2023-03-20T05:04:16.675Z,5.70
2023-03-20T05:06:48.370Z,3.63
2023-03-20T05:09:17.811Z,4.47
2023-03-20T05:11:48.686Z,3.85
2023-03-20T05:14:42.387Z,5.50
2023-03-20T05:17:28.774Z,3.95
2023-03-20T05:20:27.162Z,2.97
2023-03-20T05:23:13.534Z,6.65
2023-03-20T05:25:51.666Z,5.35
2023-03-20T05:28:39.923Z,4.22
2023-03-20T05:31:15.443Z,5.85
2023-03-20T05:34:01.205Z,3.92
2023-03-20T05:36:40.686Z,5.03
2023-03-20T05:39:27.773Z,3.40
2023-03-20T05:42:14.235Z,5.75
2023-03-20T05:45:09.254Z,6.00
2023-03-20T05:47:56.413Z,6.28
2023-03-20T05:50:44.702Z,4.85
2023-03-20T05:53:48.110Z,25.85
2023-03-20T05:56:29.495Z,6.20
2023-03-20T05:59:17.435Z,4.10
2023-03-20T06:02:11.791Z,6.20
2023-03-20T06:04:47.049Z,4.65
2023-03-20T06:07:24.495Z,14.30
2023-03-20T06:10:03.063Z,5.03
2023-03-20T06:12:32.509Z,3.63
2023-03-20T06:15:00.800Z,12.93
2023-03-20T06:17:30.665Z,5.63
2023-03-20T06:20:05.681Z,10.00
2023-03-20T06:22:33.700Z,4.00
2023-03-20T06:25:01.753Z,5.20
2023-03-20T06:27:36.229Z,5.25
2023-03-20T06:30:05.159Z,4.38
2023-03-20T06:32:36.276Z,13.48
2023-03-20T06:35:09.195Z,4.28
2023-03-20T06:37:46.873Z,5.45
2023-03-20T06:40:24.741Z,7.70
2023-03-20T06:42:52.986Z,4.43
2023-03-20T06:45:22.925Z,4.57
2023-03-20T06:47:53.774Z,6.85
2023-03-20T06:50:23.069Z,3.38
2023-03-20T06:52:52.260Z,3.75
2023-03-20T06:55:52.642Z,7.35
2023-03-20T06:58:20.829Z,9.15
2023-03-20T07:00:51.843Z,4.35
2023-03-20T07:03:20.757Z,6.95
2023-03-20T07:05:51.876Z,3.55
2023-03-20T07:08:21.608Z,4.65
2023-03-20T07:10:51.591Z,9.65
2023-03-20T07:13:20.683Z,4.20
2023-03-20T07:16:03.663Z,7.65
2023-03-20T07:18:37.011Z,5.53
2023-03-20T07:21:07.878Z,5.05
2023-03-20T07:23:36.463Z,5.28
2023-03-20T07:26:05.386Z,4.18
2023-03-20T07:28:35.858Z,3.60
2023-03-20T07:31:27.308Z,3.75
2023-03-20T07:34:04.338Z,3.28
2023-03-20T07:36:36.265Z,3.60
2023-03-20T07:39:04.750Z,3.95
2023-03-20T07:41:35.800Z,7.57
2023-03-20T07:44:08.196Z,6.35
2023-03-20T07:46:56.386Z,3.35
2023-03-20T07:49:24.699Z,3.95
2023-03-20T07:51:54.998Z,5.05
2023-03-20T07:54:24.019Z,4.53
2023-03-20T07:56:52.879Z,3.42
2023-03-20T07:59:20.867Z,2.63
2023-03-20T08:01:53.226Z,3.83
2023-03-20T08:04:22.653Z,4.75
2023-03-20T08:06:52.637Z,5.07
2023-03-20T08:09:23.726Z,2.55
2023-03-20T08:11:52.104Z,6.45
2023-03-20T08:14:20.099Z,3.22
2023-03-20T08:16:52.054Z,3.45
2023-03-20T08:19:28.377Z,4.78
2023-03-20T08:21:56.350Z,3.03
2023-03-20T08:24:25.659Z,2.78
2023-03-20T08:26:53.648Z,4.38
2023-03-20T08:29:21.547Z,3.03
2023-03-20T08:31:49.531Z,6.47
2023-03-20T08:34:17.786Z,3.85
2023-03-20T08:36:46.059Z,5.68
2023-03-20T08:39:14.190Z,3.65
2023-03-20T08:41:45.665Z,2.83
2023-03-20T08:44:14.183Z,3.20
2023-03-20T08:46:43.758Z,3.03
2023-03-20T08:49:11.747Z,2.60
2023-03-20T08:51:39.696Z,3.15
2023-03-20T08:54:07.613Z,2.53
2023-03-20T08:56:40.439Z,4.43
2023-03-20T08:59:09.746Z,3.13
2023-03-20T09:01:48.650Z,2.80
2023-03-20T09:04:17.630Z,3.15
2023-03-20T09:06:45.671Z,4.10
2023-03-20T09:09:15.721Z,3.90
2023-03-20T09:11:43.682Z,4.45
2023-03-20T09:14:12.995Z,3.58
2023-03-20T09:16:41.328Z,9.25
2023-03-20T09:19:09.232Z,6.30
2023-03-20T09:21:37.134Z,6.03
2023-03-20T09:24:05.521Z,4.45
2023-03-20T09:26:33.419Z,3.35
2023-03-20T09:29:01.346Z,10.07
2023-03-20T09:31:30.758Z,8.50
2023-03-20T09:33:58.822Z,2.85
2023-03-20T09:36:26.804Z,3.10
2023-03-20T09:38:54.757Z,3.90
2023-03-20T09:41:26.778Z,5.72
2023-03-20T09:44:10.275Z,3.30
2023-03-20T09:46:53.407Z,5.57
2023-03-20T09:49:31.691Z,2.92
2023-03-20T09:52:01.494Z,5.38
2023-03-20T09:54:50.730Z,5.13
2023-03-20T09:57:25.919Z,7.13
2023-03-20T09:59:58.225Z,6.60
2023-03-20T10:02:39.311Z,3.28
2023-03-20T10:05:18.583Z,2.80
2023-03-20T10:07:46.904Z,5.20
2023-03-20T10:10:15.809Z,7.95
2023-03-20T10:13:06.598Z,11.80
2023-03-20T10:15:44.570Z,4.13
2023-03-20T10:18:23.779Z,3.55
2023-03-20T10:20:57.696Z,4.65
2023-03-20T10:23:31.993Z,3.38
2023-03-20T10:26:04.260Z,5.07
2023-03-20T10:28:37.414Z,11.38
2023-03-20T10:31:31.113Z,7.38
2023-03-20T10:34:14.877Z,4.15
2023-03-20T10:36:57.796Z,2.85
2023-03-20T10:39:39.425Z,3.33
2023-03-20T10:42:16.523Z,2.00
2023-03-20T10:44:48.547Z,3.70
2023-03-20T10:47:19.883Z,3.97
2023-03-20T10:49:53.126Z,3.65
2023-03-20T10:52:27.271Z,2.10
2023-03-20T10:54:59.184Z,2.70
2023-03-20T10:57:31.867Z,3.40
2023-03-20T11:00:00.782Z,3.90
2023-03-20T11:02:30.668Z,4.38
2023-03-20T11:05:01.828Z,3.78
2023-03-20T11:07:34.982Z,2.65
2023-03-20T11:10:11.638Z,2.83
2023-03-20T11:12:41.484Z,3.15
2023-03-20T11:15:21.589Z,3.40
2023-03-20T11:17:55.784Z,6.97
2023-03-20T11:20:27.041Z,2.97
2023-03-20T11:23:00.657Z,2.60
2023-03-20T11:25:33.822Z,3.95
2023-03-20T11:28:20.215Z,2.80
2023-03-20T11:31:03.837Z,7.97
2023-03-20T11:33:33.012Z,5.22
2023-03-20T11:36:02.436Z,4.72
2023-03-20T11:38:31.926Z,6.28
2023-03-20T11:40:59.926Z,6.88
2023-03-20T11:43:28.970Z,4.88
2023-03-20T11:45:58.632Z,3.30
2023-03-20T11:48:36.807Z,2.92
2023-03-20T11:51:08.832Z,4.30
2023-03-20T11:53:40.578Z,8.07
2023-03-20T11:56:12.035Z,2.67
2023-03-20T11:58:53.161Z,3.45
2023-03-20T12:01:23.080Z,4.00
2023-03-20T12:03:55.617Z,3.72
2023-03-20T12:06:28.403Z,3.00
2023-03-20T12:09:00.458Z,4.32
2023-03-20T12:11:48.204Z,2.30
2023-03-20T12:14:23.562Z,7.43
2023-03-20T12:16:56.454Z,4.32
2023-03-20T12:19:30.647Z,2.58
2023-03-20T12:22:12.966Z,2.50
2023-03-20T12:24:46.542Z,3.33
2023-03-20T12:27:24.998Z,3.75
2023-03-20T12:29:59.938Z,5.10
2023-03-20T12:32:32.289Z,3.40
2023-03-20T12:35:06.084Z,3.88
2023-03-20T12:37:35.735Z,3.15
2023-03-20T12:40:05.045Z,7.25
2023-03-20T12:42:46.841Z,2.75
2023-03-20T12:45:18.845Z,3.35
2023-03-20T12:48:02.991Z,8.30
2023-03-20T12:50:36.093Z,11.88
2023-03-20T12:53:27.889Z,2.83
2023-03-20T12:56:04.857Z,4.90
2023-03-20T12:58:41.130Z,3.22
2023-03-20T13:01:15.260Z,2.95
2023-03-20T13:04:15.080Z,9.25
2023-03-20T13:06:51.779Z,2.80
2023-03-20T13:09:58.509Z,3.25
2023-03-20T13:12:38.680Z,3.15
2023-03-20T13:15:21.733Z,4.15
2023-03-20T13:17:53.881Z,3.30
2023-03-20T13:20:27.959Z,2.65
2023-03-20T13:23:04.894Z,2.85
2023-03-20T13:25:48.316Z,3.90
2023-03-20T13:28:23.935Z,4.15
2023-03-20T13:30:57.887Z,3.33
2023-03-20T13:33:37.960Z,3.22
2023-03-20T13:36:29.668Z,2.50
2023-03-20T13:39:02.528Z,4.65
2023-03-20T13:41:30.786Z,2.15
2023-03-20T13:44:04.015Z,4.43
2023-03-20T13:46:37.167Z,3.17
2023-03-20T13:49:11.458Z,2.55
2023-03-20T13:51:43.616Z,6.75
2023-03-20T13:54:38.762Z,3.00
2023-03-20T13:57:20.405Z,2.60
2023-03-20T14:00:02.632Z,3.75
2023-03-20T14:02:42.047Z,4.38
2023-03-20T14:05:17.531Z,2.28
2023-03-20T14:07:47.656Z,9.55
2023-03-20T14:10:35.272Z,10.13
2023-03-20T14:13:07.364Z,2.83
2023-03-20T14:15:38.939Z,2.60
2023-03-20T14:18:09.082Z,3.90
2023-03-20T14:20:40.538Z,3.55
2023-03-20T14:23:17.367Z,2.05
2023-03-20T14:25:46.627Z,3.08
2023-03-20T14:28:28.469Z,3.38
2023-03-20T14:31:27.596Z,2.30
2023-03-20T14:34:01.503Z,2.28
2023-03-20T14:36:32.388Z,7.05
2023-03-20T14:39:19.962Z,3.05
2023-03-20T14:42:04.270Z,3.88
2023-03-20T14:44:48.007Z,2.83
2023-03-20T14:47:29.619Z,3.65
2023-03-20T14:50:04.472Z,2.95
2023-03-20T14:52:43.761Z,6.90
2023-03-20T14:55:30.417Z,4.65
2023-03-20T14:57:59.014Z,8.05
2023-03-20T15:00:29.949Z,9.48
2023-03-20T15:03:07.837Z,3.10
2023-03-20T15:05:40.104Z,3.38
2023-03-20T15:08:11.357Z,6.90
2023-03-20T15:10:50.625Z,2.65
2023-03-20T15:13:24.341Z,4.45
2023-03-20T15:15:55.226Z,2.50
2023-03-20T15:18:27.652Z,2.20
2023-03-20T15:20:58.404Z,2.47
2023-03-20T15:23:27.057Z,3.03
2023-03-20T15:25:55.126Z,5.93
2023-03-20T15:28:26.294Z,9.02
2023-03-20T15:30:58.193Z,1.98
2023-03-20T15:33:29.617Z,3.13
2023-03-20T15:35:58.020Z,2.67
2023-03-20T15:38:33.750Z,2.80
2023-03-20T15:41:04.590Z,2.05
2023-03-20T15:43:35.676Z,2.40
2023-03-20T15:46:19.443Z,2.67
2023-03-20T15:48:51.992Z,3.22
2023-03-20T15:51:24.362Z,7.93
2023-03-20T15:53:52.387Z,4.45
2023-03-20T15:56:24.122Z,2.95
2023-03-20T15:58:53.386Z,1.90
2023-03-20T16:01:23.941Z,2.08
2023-03-20T16:03:54.184Z,3.85
2023-03-20T16:06:23.202Z,2.60
2023-03-20T16:08:59.786Z,3.13
2023-03-20T16:11:37.789Z,3.13
2023-03-20T16:14:07.553Z,3.95
2023-03-20T16:16:37.462Z,4.60
2023-03-20T16:19:07.907Z,1.88
2023-03-20T16:21:39.597Z,3.03
2023-03-20T16:24:11.320Z,1.98
2023-03-20T16:26:44.109Z,2.10
2023-03-20T16:29:15.558Z,2.65
2023-03-20T16:31:49.571Z,3.17
2023-03-20T16:34:22.875Z,2.30
2023-03-20T16:36:56.203Z,4.45
2023-03-20T16:39:27.170Z,3.10
2023-03-20T16:42:11.836Z,2.53
2023-03-20T16:44:45.189Z,2.28
2023-03-20T16:47:24.665Z,3.15
2023-03-20T16:50:17.413Z,3.45
2023-03-20T16:52:51.564Z,2.78
2023-03-20T16:55:25.347Z,2.72
2023-03-20T16:57:58.109Z,5.10
2023-03-20T17:00:31.708Z,2.80
2023-03-20T17:03:10.900Z,4.57
2023-03-20T17:05:59.599Z,2.15
2023-03-20T17:08:31.751Z,3.70
2023-03-20T17:11:04.261Z,3.83
2023-03-20T17:13:32.222Z,2.05
2023-03-20T17:16:00.479Z,5.53
2023-03-20T17:18:29.695Z,2.17
2023-03-20T17:20:58.993Z,4.50
2023-03-20T17:23:27.031Z,3.00
2023-03-20T17:25:55.181Z,5.63
2023-03-20T17:28:29.350Z,3.00
2023-03-20T17:30:57.230Z,3.15
2023-03-20T17:33:25.212Z,3.20
2023-03-20T17:35:54.095Z,2.40
2023-03-20T17:38:23.875Z,2.30
2023-03-20T17:40:54.447Z,1.80
2023-03-20T17:43:23.970Z,2.90
2023-03-20T17:45:54.137Z,2.00
2023-03-20T17:48:22.882Z,2.25
2023-03-20T17:50:51.453Z,5.10
2023-03-20T17:53:23.850Z,4.90
2023-03-20T17:55:53.615Z,5.20
2023-03-20T17:58:23.624Z,2.58
2023-03-20T18:00:52.934Z,6.93
2023-03-20T18:03:21.812Z,2.80
2023-03-20T18:05:53.520Z,2.63
2023-03-20T18:08:23.459Z,8.55
2023-03-20T18:10:56.788Z,7.03
2023-03-20T18:13:27.060Z,4.97
2023-03-20T18:15:57.904Z,3.13
2023-03-20T18:18:26.322Z,4.60
2023-03-20T18:20:54.994Z,5.95
2023-03-20T18:23:23.095Z,5.53
2023-03-20T18:25:51.168Z,6.13
2023-03-20T18:28:23.085Z,4.25
2023-03-20T18:30:51.884Z,4.22
2023-03-20T18:33:27.539Z,5.00
2023-03-20T18:35:55.670Z,5.93
2023-03-20T18:38:25.610Z,9.55
2023-03-20T18:40:53.681Z,14.38
2023-03-20T18:43:23.237Z,9.75
2023-03-20T18:45:51.252Z,26.98
2023-03-20T18:48:19.233Z,17.02
2023-03-20T18:50:50.916Z,19.02
2023-03-20T18:53:19.495Z,23.27
2023-03-20T18:55:47.444Z,22.27
2023-03-20T18:58:23.013Z,26.00
2023-03-20T19:00:53.535Z,22.75
2023-03-20T19:03:23.749Z,20.52
2023-03-20T19:05:52.716Z,22.02
2023-03-20T19:08:20.662Z,31.70
2023-03-20T19:10:49.404Z,27.92
2023-03-20T19:13:21.305Z,27.75
2023-03-20T19:15:50.704Z,27.40
2023-03-20T19:18:23.979Z,20.92
2023-03-20T19:20:53.398Z,19.48
2023-03-20T19:23:21.961Z,18.70
2023-03-20T19:25:51.882Z,24.92
2023-03-20T19:28:27.302Z,13.07
2023-03-20T19:31:04.556Z,21.80
2023-03-20T19:33:33.136Z,18.60
2023-03-20T19:36:05.932Z,14.60
2023-03-20T19:38:38.893Z,21.00
2023-03-20T19:41:08.714Z,21.75
2023-03-20T19:43:51.410Z,21.10
2023-03-20T19:46:41.773Z,21.23
2023-03-20T19:49:19.421Z,16.88
2023-03-20T19:51:48.114Z,15.98
2023-03-20T19:54:16.358Z,19.08
2023-03-20T19:56:44.334Z,16.50
2023-03-20T19:59:15.992Z,13.88
2023-03-20T20:01:46.809Z,11.65
2023-03-20T20:04:14.983Z,13.43
2023-03-20T20:06:42.957Z,16.35
2023-03-20T20:09:10.982Z,13.30
2023-03-20T20:11:39.023Z,14.30
2023-03-20T20:14:09.673Z,13.48
2023-03-20T20:16:42.259Z,6.50
2023-03-20T20:19:11.641Z,15.80
2023-03-20T20:22:17.211Z,13.98
2023-03-20T20:24:27.832Z,10.38
2023-03-20T20:27:15.357Z,15.75
2023-03-20T20:29:46.580Z,15.95
2023-03-20T20:32:14.566Z,10.20
2023-03-20T20:40:21.798Z,17.80
2023-03-20T20:42:51.592Z,11.90
2023-03-20T20:45:21.176Z,8.73
2023-03-20T20:47:49.449Z,11.10
2023-03-20T20:50:21.328Z,9.50
2023-03-20T20:52:54.434Z,8.57
2023-03-20T20:55:25.481Z,9.32
2023-03-20T20:57:55.456Z,10.45
2023-03-20T21:00:37.160Z,14.27
2023-03-20T21:03:13.249Z,8.60
2023-03-20T21:05:44.326Z,13.63
2023-03-20T21:08:16.446Z,14.25
2023-03-20T21:10:45.637Z,14.48
2023-03-20T21:13:13.558Z,10.93
2023-03-20T21:15:42.096Z,10.68
2023-03-20T21:18:10.331Z,8.82
2023-03-20T21:20:38.310Z,9.15
2023-03-20T21:23:07.543Z,7.93
2023-03-20T21:25:40.527Z,8.70
2023-03-20T21:28:09.020Z,9.75
2023-03-20T21:30:44.283Z,7.63
2023-03-20T21:33:24.767Z,10.32
2023-03-20T21:35:53.901Z,6.68
2023-03-20T21:38:58.483Z,11.43
2023-03-20T21:41:15.204Z,9.90
2023-03-20T21:43:46.484Z,9.55
2023-03-20T21:52:41.728Z,7.03
2023-03-20T21:58:10.382Z,7.18
2023-03-20T22:01:08.415Z,9.20
2023-03-20T22:03:10.923Z,9.63
2023-03-20T22:06:21.068Z,5.50
2023-03-20T22:14:56.911Z,5.53
2023-03-20T22:20:35.441Z,8.25
2023-03-20T22:31:40.948Z,4.72
2023-03-20T22:34:30.699Z,7.28
2023-03-20T22:45:08.759Z,8.50
2023-03-20T22:47:37.537Z,5.80
2023-03-20T22:50:06.351Z,7.68
2023-03-20T22:52:48.152Z,4.53
2023-03-20T22:55:17.523Z,7.72
2023-03-20T22:58:03.507Z,7.88
2023-03-20T23:00:35.876Z,5.20
2023-03-20T23:03:19.480Z,4.88
2023-03-20T23:05:54.227Z,5.30
2023-03-20T23:08:22.781Z,4.72
2023-03-20T23:10:52.352Z,9.35
2023-03-20T23:13:22.337Z,4.63
2023-03-20T23:15:57.088Z,4.97
2023-03-20T23:18:25.660Z,6.43
2023-03-20T23:20:57.852Z,9.55
2023-03-20T23:23:26.331Z,6.07
2023-03-20T23:26:03.667Z,4.68
2023-03-20T23:28:31.652Z,5.50
2023-03-20T23:31:10.493Z,4.88
2023-03-20T23:33:39.008Z,5.28
2023-03-20T23:36:24.821Z,6.78
2023-03-20T23:38:56.897Z,8.10
2023-03-20T23:41:57.720Z,6.70
2023-03-20T23:44:19.036Z,12.45
2023-03-20T23:46:48.580Z,10.30
2023-03-20T23:49:18.097Z,5.05
2023-03-20T23:51:46.240Z,5.22
2023-03-20T23:54:14.577Z,5.40
2023-03-20T23:56:42.519Z,5.90
2023-03-20T23:59:21.058Z,6.20
